createdAt,value
2018-05-24T00:00:10.580Z,54.04
2018-05-24T00:01:10.467Z,54.13
2018-05-24T00:02:11.506Z,54.04
2018-05-24T00:03:10.404Z,53.85
2018-05-24T00:04:10.521Z,54.04
2018-05-24T00:05:10.372Z,54.23
2018-05-24T00:06:10.411Z,54.23
2018-05-24T00:07:10.317Z,54.23
2018-05-24T00:08:10.324Z,54.04
2018-05-24T00:09:10.281Z,54.23
2018-05-24T00:10:10.339Z,54.33
2018-05-24T00:11:10.242Z,54.52
2018-05-24T00:12:11.275Z,54.13
2018-05-24T00:13:10.206Z,54.13
2018-05-24T00:14:10.290Z,54.13
2018-05-24T00:15:10.154Z,54.23
2018-05-24T00:16:10.194Z,54.04
2018-05-24T00:17:10.106Z,53.94
2018-05-24T00:18:10.187Z,54.04
2018-05-24T00:19:10.069Z,54.71
2018-05-24T00:20:10.104Z,53.75
2018-05-24T00:21:10.028Z,54.11
2018-05-24T00:22:10.126Z,53.94
2018-05-24T00:23:09.983Z,53.94
2018-05-24T00:24:10.027Z,53.56
2018-05-24T00:25:09.934Z,53.46
2018-05-24T00:26:10.035Z,53.75
2018-05-24T00:27:09.899Z,53.66
2018-05-24T00:28:09.946Z,53.46
2018-05-24T00:29:09.859Z,53.56
2018-05-24T00:30:09.864Z,53.08
2018-05-24T00:31:09.804Z,53.08
2018-05-24T00:32:09.868Z,53.36
2018-05-24T00:33:09.753Z,53.46
2018-05-24T00:34:09.800Z,53.46
2018-05-24T00:35:09.732Z,53.56
2018-05-24T00:36:09.827Z,53.44
2018-05-24T00:37:09.663Z,53.46
2018-05-24T00:38:10.733Z,53.53
2018-05-24T00:39:09.624Z,53.63
2018-05-24T00:40:09.720Z,53.53
2018-05-24T00:41:09.587Z,53.63
2018-05-24T00:42:10.655Z,53.53
2018-05-24T00:43:09.591Z,53.91
2018-05-24T00:44:09.648Z,53.82
2018-05-24T00:45:09.548Z,53.72
2018-05-24T00:46:09.570Z,54.01
2018-05-24T00:47:09.489Z,54.01
2018-05-24T00:48:09.466Z,53.72
2018-05-24T00:49:09.424Z,53.53
2018-05-24T00:50:09.487Z,53.72
2018-05-24T00:51:09.379Z,53.44
2018-05-24T00:52:09.405Z,53.34
2018-05-24T00:53:09.325Z,53.63
2018-05-24T00:54:10.335Z,53.15
2018-05-24T00:55:09.281Z,53.53
2018-05-24T00:56:10.351Z,53.72
2018-05-24T00:57:09.234Z,53.63
2018-05-24T00:58:09.351Z,53.72
2018-05-24T00:59:09.215Z,53.63
2018-05-24T01:00:09.246Z,53.72
2018-05-24T01:01:09.151Z,54.01
2018-05-24T01:02:10.191Z,53.63
2018-05-24T01:03:09.113Z,54.01
2018-05-24T01:04:09.179Z,54.01
2018-05-24T01:05:09.102Z,54.01
2018-05-24T01:06:09.098Z,54.01
2018-05-24T01:07:09.037Z,53.53
2018-05-24T01:08:09.093Z,53.72
2018-05-24T01:09:08.985Z,53.72
2018-05-24T01:10:08.999Z,53.63
2018-05-24T01:11:08.955Z,54.11
2018-05-24T01:12:09.021Z,53.82
2018-05-24T01:13:08.907Z,53.91
2018-05-24T01:14:08.951Z,54.11
2018-05-24T01:15:08.884Z,53.72
2018-05-24T01:16:09.868Z,53.91
2018-05-24T01:17:08.804Z,53.72
2018-05-24T01:18:08.859Z,53.82
2018-05-24T01:19:08.762Z,53.72
2018-05-24T01:20:08.768Z,53.79
2018-05-24T01:21:08.715Z,53.91
2018-05-24T01:22:08.772Z,54.08
2018-05-24T01:23:08.682Z,53.82
2018-05-24T01:24:08.684Z,53.91
2018-05-24T01:25:08.632Z,54.11
2018-05-24T01:26:08.714Z,54.11
2018-05-24T01:27:08.614Z,53.72
2018-05-24T01:28:08.619Z,53.34
2018-05-24T01:29:08.542Z,52.76
2018-05-24T01:30:08.644Z,53.34
2018-05-24T01:31:08.521Z,53.63
2018-05-24T01:32:08.544Z,53.53
2018-05-24T01:33:08.462Z,53.91
2018-05-24T01:34:08.455Z,53.44
2018-05-24T01:35:08.442Z,53.34
2018-05-24T01:36:08.463Z,53.34
2018-05-24T01:37:08.375Z,53.91
2018-05-24T01:38:08.386Z,53.63
2018-05-24T01:39:08.334Z,53.44
2018-05-24T01:40:08.389Z,52.95
2018-05-24T01:41:08.306Z,53.24
2018-05-24T01:42:08.294Z,52.86
2018-05-24T01:43:08.252Z,52.95
2018-05-24T01:44:08.327Z,52.95
2018-05-24T01:45:08.205Z,52.28
2018-05-24T01:46:08.235Z,52.48
2018-05-24T01:47:08.173Z,52.76
2018-05-24T01:48:08.248Z,52.95
2018-05-24T01:49:08.125Z,52.38
2018-05-24T01:50:08.153Z,52.38
2018-05-24T01:51:08.057Z,52.67
2018-05-24T01:52:08.069Z,52.67
2018-05-24T01:53:08.032Z,52.76
2018-05-24T01:54:08.077Z,52.48
2018-05-24T01:55:08.032Z,52.48
2018-05-24T01:56:07.995Z,52.67
2018-05-24T01:57:07.947Z,52.38
2018-05-24T01:58:08.029Z,52.67
2018-05-24T01:59:07.888Z,52.86
2018-05-24T02:00:07.935Z,53.05
2018-05-24T02:01:07.855Z,52.76
2018-05-24T02:02:09.908Z,53.05
2018-05-24T02:03:07.802Z,52.86
2018-05-24T02:04:07.876Z,52.86
2018-05-24T02:05:07.775Z,52.86
2018-05-24T02:06:07.756Z,52.86
2018-05-24T02:07:07.739Z,52.86
2018-05-24T02:08:09.729Z,52.76
2018-05-24T02:09:07.676Z,53.05
2018-05-24T02:10:07.707Z,53.15
2018-05-24T02:11:07.632Z,53.72
2018-05-24T02:12:07.729Z,53.91
2018-05-24T02:13:07.593Z,53.34
2018-05-24T02:14:07.643Z,53.63
2018-05-24T02:15:07.600Z,53.72
2018-05-24T02:16:07.640Z,53.63
2018-05-24T02:17:07.507Z,54.01
2018-05-24T02:18:08.595Z,53.82
2018-05-24T02:19:07.457Z,53.89
2018-05-24T02:20:07.543Z,53.89
2018-05-24T02:21:07.412Z,53.70
2018-05-24T02:22:07.457Z,54.37
2018-05-24T02:23:07.364Z,54.17
2018-05-24T02:24:07.369Z,54.37
2018-05-24T02:25:07.340Z,54.46
2018-05-24T02:26:07.384Z,54.17
2018-05-24T02:27:07.283Z,54.17
2018-05-24T02:28:07.285Z,53.99
2018-05-24T02:29:07.298Z,53.99
2018-05-24T02:30:08.327Z,54.37
2018-05-24T02:31:07.188Z,54.08
2018-05-24T02:32:07.222Z,54.66
2018-05-24T02:33:07.171Z,54.27
2018-05-24T02:34:07.218Z,54.85
2018-05-24T02:35:07.109Z,53.79
2018-05-24T02:36:07.480Z,54.37
2018-05-24T02:37:07.052Z,54.08
2018-05-24T02:38:07.058Z,54.27
2018-05-24T02:39:07.018Z,54.46
2018-05-24T02:40:07.066Z,54.66
2018-05-24T02:41:06.964Z,54.66
2018-05-24T02:42:06.976Z,54.66
2018-05-24T02:43:06.939Z,54.75
2018-05-24T02:44:06.986Z,54.85
2018-05-24T02:45:06.894Z,54.46
2018-05-24T02:46:06.899Z,54.56
2018-05-24T02:47:06.839Z,55.33
2018-05-24T02:48:06.909Z,54.66
2018-05-24T02:49:06.790Z,54.94
2018-05-24T02:50:06.842Z,54.94
2018-05-24T02:51:06.738Z,54.85
2018-05-24T02:52:06.736Z,55.42
2018-05-24T02:53:06.706Z,55.23
2018-05-24T02:54:06.763Z,55.52
2018-05-24T02:55:06.671Z,55.80
2018-05-24T02:56:06.677Z,56.96
2018-05-24T02:57:06.631Z,56.67
2018-05-24T02:58:06.690Z,57.06
2018-05-24T02:59:06.580Z,57.53
2018-05-24T03:00:06.601Z,57.72
2018-05-24T03:01:06.530Z,57.72
2018-05-24T03:02:07.526Z,59.16
2018-05-24T03:03:06.490Z,59.16
2018-05-24T03:04:06.506Z,58.20
2018-05-24T03:05:06.439Z,58.20
2018-05-24T03:06:06.536Z,58.59
2018-05-24T03:07:06.402Z,58.59
2018-05-24T03:08:06.438Z,58.87
2018-05-24T03:09:06.347Z,59.06
2018-05-24T03:10:06.362Z,59.55
2018-05-24T03:11:06.294Z,60.12
2018-05-24T03:12:06.417Z,59.64
2018-05-24T03:13:06.277Z,59.64
2018-05-24T03:14:07.309Z,59.80
2018-05-24T03:15:06.226Z,60.09
2018-05-24T03:16:06.296Z,60.57
2018-05-24T03:17:06.166Z,59.90
2018-05-24T03:18:06.213Z,60.09
2018-05-24T03:19:06.128Z,60.09
2018-05-24T03:20:06.215Z,60.19
2018-05-24T03:21:06.084Z,61.05
2018-05-24T03:22:06.125Z,61.15
2018-05-24T03:23:06.041Z,60.19
2018-05-24T03:24:06.056Z,60.38
2018-05-24T03:25:05.992Z,61.43
2018-05-24T03:26:06.057Z,61.53
2018-05-24T03:27:05.939Z,61.27
2018-05-24T03:28:06.016Z,60.00
2018-05-24T03:29:05.920Z,60.12
2018-05-24T03:30:06.946Z,60.96
2018-05-24T03:31:05.865Z,60.57
2018-05-24T03:32:05.852Z,60.38
2018-05-24T03:33:05.876Z,60.09
2018-05-24T03:34:05.796Z,60.22
2018-05-24T03:35:05.811Z,60.31
2018-05-24T03:36:05.800Z,60.09
2018-05-24T03:37:06.848Z,59.80
2018-05-24T03:38:05.716Z,59.71
2018-05-24T03:39:05.743Z,59.80
2018-05-24T03:40:05.681Z,60.09
2018-05-24T03:41:05.757Z,60.00
2018-05-24T03:42:05.625Z,59.71
2018-05-24T03:43:05.662Z,59.90
2018-05-24T03:44:05.602Z,60.09
2018-05-24T03:45:06.595Z,60.19
2018-05-24T03:46:05.526Z,59.80
2018-05-24T03:47:05.583Z,59.61
2018-05-24T03:48:05.495Z,60.03
2018-05-24T03:49:05.490Z,60.00
2018-05-24T03:50:05.448Z,60.19
2018-05-24T03:51:05.528Z,60.12
2018-05-24T03:52:05.464Z,60.00
2018-05-24T03:53:05.436Z,59.83
2018-05-24T03:54:05.332Z,61.18
2018-05-24T03:55:05.434Z,62.68
2018-05-24T03:56:05.325Z,64.72
2018-05-24T03:57:06.373Z,65.78
2018-05-24T03:58:05.270Z,65.94
2018-05-24T03:59:05.265Z,67.66
2018-05-24T04:00:05.269Z,69.87
2018-05-24T04:01:05.257Z,70.54
2018-05-24T04:02:05.203Z,72.52
2018-05-24T04:03:07.237Z,74.24
2018-05-24T04:04:05.164Z,74.72
2018-05-24T04:05:05.213Z,73.86
2018-05-24T04:06:05.078Z,74.43
2018-05-24T04:07:05.082Z,75.68
2018-05-24T04:08:05.044Z,76.44
2018-05-24T04:09:05.129Z,76.73
2018-05-24T04:10:04.996Z,78.64
2018-05-24T04:11:05.039Z,77.11
2018-05-24T04:12:04.961Z,75.26
2018-05-24T04:13:04.924Z,77.94
2018-05-24T04:14:04.903Z,77.46
2018-05-24T04:15:04.933Z,76.31
2018-05-24T04:16:04.906Z,76.69
2018-05-24T04:17:04.863Z,79.08
2018-05-24T04:18:04.901Z,80.14
2018-05-24T04:19:04.809Z,79.57
2018-05-24T04:20:04.859Z,80.24
2018-05-24T04:21:04.751Z,79.57
2018-05-24T04:22:04.829Z,78.13
2018-05-24T04:23:04.707Z,78.03
2018-05-24T04:24:04.680Z,78.70
2018-05-24T04:25:04.728Z,78.32
2018-05-24T04:26:04.643Z,78.89
2018-05-24T04:27:04.738Z,78.61
2018-05-24T04:28:04.600Z,80.14
2018-05-24T04:29:04.650Z,80.52
2018-05-24T04:30:04.554Z,80.24
2018-05-24T04:31:04.570Z,80.81
2018-05-24T04:32:04.514Z,81.48
2018-05-24T04:33:04.636Z,82.34
2018-05-24T04:34:04.498Z,81.15
2018-05-24T04:35:04.441Z,82.20
2018-05-24T04:36:04.515Z,82.20
2018-05-24T04:37:04.402Z,82.87
2018-05-24T04:38:04.426Z,82.30
2018-05-24T04:39:04.361Z,83.16
2018-05-24T04:40:06.334Z,83.16
2018-05-24T04:41:04.306Z,83.83
2018-05-24T04:42:04.331Z,83.54
2018-05-24T04:43:04.268Z,83.64
2018-05-24T04:44:04.342Z,83.73
2018-05-24T04:45:04.215Z,84.88
2018-05-24T04:46:04.253Z,84.69
2018-05-24T04:47:04.176Z,84.12
2018-05-24T04:48:04.168Z,83.26
2018-05-24T04:49:04.115Z,84.22
2018-05-24T04:50:04.182Z,83.45
2018-05-24T04:51:04.080Z,82.30
2018-05-24T04:52:04.094Z,82.20
2018-05-24T04:53:04.039Z,82.68
2018-05-24T04:54:04.096Z,83.64
2018-05-24T04:55:04.022Z,82.68
2018-05-24T04:56:04.006Z,82.87
2018-05-24T04:57:03.955Z,83.45
2018-05-24T04:58:04.044Z,83.06
2018-05-24T04:59:03.913Z,83.26
2018-05-24T05:00:03.888Z,83.93
2018-05-24T05:01:03.961Z,84.79
2018-05-24T05:02:03.832Z,84.69
2018-05-24T05:03:03.870Z,84.02
2018-05-24T05:04:03.799Z,83.83
2018-05-24T05:05:03.899Z,84.22
2018-05-24T05:06:03.764Z,84.26
2018-05-24T05:07:03.788Z,84.55
2018-05-24T05:08:03.721Z,84.55
2018-05-24T05:09:04.732Z,83.97
2018-05-24T05:10:03.654Z,84.26
2018-05-24T05:11:03.631Z,83.59
2018-05-24T05:12:03.726Z,82.34
2018-05-24T05:13:03.579Z,82.53
2018-05-24T05:14:03.558Z,81.86
2018-05-24T05:15:03.625Z,82.34
2018-05-24T05:16:03.523Z,83.39
2018-05-24T05:17:03.547Z,82.82
2018-05-24T05:18:03.477Z,82.92
2018-05-24T05:19:03.551Z,82.82
2018-05-24T05:20:03.426Z,83.20
2018-05-24T05:21:03.414Z,83.01
2018-05-24T05:22:03.476Z,83.20
2018-05-24T05:23:03.406Z,82.92
2018-05-24T05:24:03.350Z,83.20
2018-05-24T05:25:03.321Z,83.20
2018-05-24T05:26:03.414Z,82.92
2018-05-24T05:27:03.279Z,83.01
2018-05-24T05:28:03.319Z,82.15
2018-05-24T05:29:03.241Z,81.96
2018-05-24T05:30:03.213Z,82.73
2018-05-24T05:31:03.186Z,82.73
2018-05-24T05:32:03.232Z,82.15
2018-05-24T05:33:03.145Z,81.86
2018-05-24T05:34:03.128Z,81.86
2018-05-24T05:35:03.089Z,81.33
2018-05-24T05:36:03.177Z,81.43
2018-05-24T05:37:03.073Z,81.23
2018-05-24T05:38:03.086Z,81.43
2018-05-24T05:39:03.009Z,81.13
2018-05-24T05:40:02.974Z,80.66
2018-05-24T05:41:02.962Z,80.27
2018-05-24T05:42:02.991Z,80.27
2018-05-24T05:43:02.923Z,80.08
2018-05-24T05:44:02.896Z,79.99
2018-05-24T05:45:02.858Z,80.27
2018-05-24T05:46:02.924Z,79.70
2018-05-24T05:47:02.813Z,77.69
2018-05-24T05:48:02.809Z,77.78
2018-05-24T05:49:02.834Z,78.69
2018-05-24T05:50:02.772Z,76.54
2018-05-24T05:51:02.745Z,76.48
2018-05-24T05:52:02.750Z,75.62
2018-05-24T05:53:02.769Z,76.77
2018-05-24T05:54:02.697Z,75.23
2018-05-24T05:55:02.721Z,74.18
2018-05-24T05:56:02.625Z,74.27
2018-05-24T05:57:02.683Z,74.51
2018-05-24T05:58:02.582Z,73.83
2018-05-24T05:59:02.616Z,74.02
2018-05-24T06:00:02.575Z,74.22
2018-05-24T06:01:02.513Z,73.45
2018-05-24T06:02:02.608Z,72.68
2018-05-24T06:03:03.547Z,70.76
2018-05-24T06:04:02.446Z,71.72
2018-05-24T06:05:03.472Z,71.44
2018-05-24T06:06:02.391Z,70.38
2018-05-24T06:07:02.369Z,71.72
2018-05-24T06:08:02.345Z,70.09
2018-05-24T06:09:02.334Z,69.74
2018-05-24T06:10:02.349Z,68.85
2018-05-24T06:11:02.287Z,70.13
2018-05-24T06:12:02.261Z,69.26
2018-05-24T06:13:02.227Z,68.88
2018-05-24T06:14:02.216Z,68.79
2018-05-24T06:15:02.185Z,68.59
2018-05-24T06:16:02.170Z,68.59
2018-05-24T06:17:02.147Z,68.79
2018-05-24T06:18:02.148Z,68.30
2018-05-24T06:19:02.119Z,69.26
2018-05-24T06:20:02.081Z,68.50
2018-05-24T06:21:02.057Z,67.00
2018-05-24T06:22:02.124Z,66.86
2018-05-24T06:23:02.020Z,67.73
2018-05-24T06:24:02.012Z,67.76
2018-05-24T06:25:02.051Z,66.71
2018-05-24T06:26:01.951Z,66.33
2018-05-24T06:27:02.983Z,66.90
2018-05-24T06:28:01.884Z,66.42
2018-05-24T06:29:01.938Z,67.38
2018-05-24T06:30:01.847Z,67.00
2018-05-24T06:31:01.829Z,66.80
2018-05-24T06:32:01.805Z,66.33
2018-05-24T06:33:01.850Z,66.42
2018-05-24T06:34:01.749Z,65.84
2018-05-24T06:35:01.744Z,66.03
2018-05-24T06:36:01.779Z,66.33
2018-05-24T06:37:01.683Z,67.19
2018-05-24T06:38:01.693Z,67.57
2018-05-24T06:39:01.664Z,66.33
2018-05-24T06:40:02.723Z,66.42
2018-05-24T06:41:01.595Z,66.52
2018-05-24T06:42:01.629Z,66.58
2018-05-24T06:43:01.540Z,66.61
2018-05-24T06:44:01.541Z,67.47
2018-05-24T06:45:01.503Z,67.47
2018-05-24T06:46:01.542Z,66.80
2018-05-24T06:47:01.456Z,67.86
2018-05-24T06:48:01.546Z,67.38
2018-05-24T06:49:01.510Z,68.34
2018-05-24T06:50:01.480Z,67.00
2018-05-24T06:51:01.365Z,67.00
2018-05-24T06:52:01.384Z,67.47
2018-05-24T06:53:01.339Z,66.90
2018-05-24T06:54:01.377Z,66.71
2018-05-24T06:55:01.308Z,67.29
2018-05-24T06:56:01.306Z,66.71
2018-05-24T06:57:01.247Z,66.52
2018-05-24T06:58:01.352Z,66.52
2018-05-24T06:59:01.289Z,66.90
2018-05-24T07:00:01.302Z,67.00
2018-05-24T07:01:01.263Z,66.84
2018-05-24T07:02:01.132Z,67.13
2018-05-24T07:03:01.248Z,65.88
2018-05-24T07:04:01.102Z,66.07
2018-05-24T07:05:01.047Z,65.88
2018-05-24T07:06:01.059Z,65.59
2018-05-24T07:07:01.023Z,65.40
2018-05-24T07:08:00.993Z,66.26
2018-05-24T07:09:01.078Z,65.40
2018-05-24T07:10:00.948Z,65.69
2018-05-24T07:11:00.999Z,65.33
2018-05-24T07:12:00.984Z,65.14
2018-05-24T07:13:00.871Z,65.91
2018-05-24T07:14:00.880Z,65.05
2018-05-24T07:15:00.840Z,64.09
2018-05-24T07:16:00.921Z,63.79
2018-05-24T07:17:00.779Z,64.12
2018-05-24T07:18:00.804Z,63.45
2018-05-24T07:19:00.734Z,63.25
2018-05-24T07:20:00.826Z,64.02
2018-05-24T07:21:00.726Z,64.15
2018-05-24T07:22:00.671Z,62.90
2018-05-24T07:23:00.738Z,63.28
2018-05-24T07:24:00.630Z,63.18
2018-05-24T07:25:00.598Z,62.80
2018-05-24T07:26:00.584Z,64.05
2018-05-24T07:27:00.551Z,63.95
2018-05-24T07:28:00.561Z,64.05
2018-05-24T07:29:00.502Z,62.90
2018-05-24T07:30:00.574Z,63.28
2018-05-24T07:31:00.473Z,63.86
2018-05-24T07:32:00.501Z,63.95
2018-05-24T07:33:00.419Z,63.67
2018-05-24T07:34:00.512Z,63.86
2018-05-24T07:35:00.377Z,64.82
2018-05-24T07:36:00.353Z,63.28
2018-05-24T07:37:00.345Z,62.61
2018-05-24T07:38:00.331Z,62.61
2018-05-24T07:39:00.335Z,63.28
2018-05-24T07:40:00.278Z,63.38
2018-05-24T07:41:00.238Z,63.48
2018-05-24T07:42:00.219Z,63.28
2018-05-24T07:43:00.253Z,63.09
2018-05-24T07:44:00.188Z,62.71
2018-05-24T07:45:00.218Z,63.31
2018-05-24T07:46:00.139Z,62.83
2018-05-24T07:47:01.108Z,63.41
2018-05-24T07:48:00.072Z,63.79
2018-05-24T07:49:00.190Z,62.74
2018-05-24T07:50:00.114Z,62.38
2018-05-24T07:51:01.099Z,61.71
2018-05-24T07:52:00.002Z,60.84
2018-05-24T07:53:00.064Z,61.04
2018-05-24T07:53:59.971Z,61.22
2018-05-24T07:55:00.999Z,61.42
2018-05-24T07:55:59.903Z,61.22
2018-05-24T07:56:59.965Z,60.77
2018-05-24T07:57:59.891Z,61.16
2018-05-24T07:58:59.876Z,60.55
2018-05-24T07:59:59.815Z,60.30
2018-05-24T08:00:59.890Z,60.36
2018-05-24T08:01:59.762Z,60.36
2018-05-24T08:02:59.815Z,60.65
2018-05-24T08:03:59.703Z,61.25
2018-05-24T08:04:59.725Z,61.16
2018-05-24T08:05:59.674Z,60.20
2018-05-24T08:06:59.755Z,61.00
2018-05-24T08:07:59.632Z,61.10
2018-05-24T08:08:59.629Z,60.32
2018-05-24T08:09:59.612Z,58.59
2018-05-24T08:10:59.569Z,58.40
2018-05-24T08:11:59.535Z,58.30
2018-05-24T08:12:59.583Z,59.36
2018-05-24T08:13:59.484Z,58.40
2018-05-24T08:14:59.579Z,58.59
2018-05-24T08:15:59.461Z,59.27
2018-05-24T08:16:59.483Z,58.27
2018-05-24T08:17:59.411Z,59.04
2018-05-24T08:18:59.418Z,59.43
2018-05-24T08:19:59.350Z,59.23
2018-05-24T08:21:00.438Z,60.00
2018-05-24T08:21:59.305Z,59.72
2018-05-24T08:22:59.326Z,59.91
2018-05-24T08:23:59.315Z,59.23
2018-05-24T08:24:59.363Z,59.72
2018-05-24T08:25:59.252Z,60.90
2018-05-24T08:26:59.236Z,60.52
2018-05-24T08:27:59.199Z,60.26
2018-05-24T08:28:59.169Z,58.88
2018-05-24T08:29:59.174Z,58.62
2018-05-24T08:30:59.105Z,59.07
2018-05-24T08:31:59.232Z,58.72
2018-05-24T08:32:59.056Z,59.20
2018-05-24T08:33:59.122Z,58.55
2018-05-24T08:34:59.015Z,57.97
2018-05-24T08:35:59.114Z,57.78
2018-05-24T08:36:58.971Z,58.55
2018-05-24T08:37:59.033Z,58.94
2018-05-24T08:38:58.932Z,57.20
2018-05-24T08:39:59.962Z,57.59
2018-05-24T08:40:58.935Z,57.94
2018-05-24T08:41:59.888Z,58.42
2018-05-24T08:42:58.839Z,59.48
2018-05-24T08:43:58.851Z,59.48
2018-05-24T08:44:58.810Z,59.75
2018-05-24T08:45:58.819Z,59.87
2018-05-24T08:46:58.850Z,60.13
2018-05-24T08:47:58.743Z,60.32
2018-05-24T08:48:58.809Z,60.32
2018-05-24T08:49:58.682Z,60.45
2018-05-24T08:50:58.666Z,59.87
2018-05-24T08:51:58.656Z,59.68
2018-05-24T08:52:58.742Z,59.48
2018-05-24T08:53:58.586Z,60.35
2018-05-24T08:54:58.641Z,59.97
2018-05-24T08:55:58.589Z,60.00
2018-05-24T08:56:58.586Z,60.10
2018-05-24T08:57:58.525Z,59.74
2018-05-24T08:58:58.486Z,58.58
2018-05-24T08:59:58.597Z,58.48
2018-05-24T09:00:58.442Z,58.77
2018-05-24T09:01:58.486Z,60.03
2018-05-24T09:02:58.400Z,59.48
2018-05-24T09:03:58.390Z,57.81
2018-05-24T09:04:58.414Z,57.90
2018-05-24T09:05:58.421Z,57.90
2018-05-24T09:06:58.296Z,58.87
2018-05-24T09:07:59.360Z,58.29
2018-05-24T09:08:58.277Z,58.48
2018-05-24T09:09:58.337Z,59.55
2018-05-24T09:10:58.219Z,58.68
2018-05-24T09:11:58.272Z,59.06
2018-05-24T09:12:58.164Z,59.25
2018-05-24T09:13:58.280Z,59.48
2018-05-24T09:14:58.113Z,59.19
2018-05-24T09:15:58.176Z,59.58
2018-05-24T09:16:58.084Z,57.38
2018-05-24T09:17:58.080Z,57.29
2018-05-24T09:18:58.036Z,56.80
2018-05-24T09:19:58.077Z,57.31
2018-05-24T09:20:58.023Z,57.51
2018-05-24T09:21:58.005Z,56.67
2018-05-24T09:22:57.955Z,55.60
2018-05-24T09:23:59.037Z,54.63
2018-05-24T09:24:57.905Z,54.73
2018-05-24T09:25:58.945Z,54.63
2018-05-24T09:26:57.865Z,55.41
2018-05-24T09:27:57.925Z,55.19
2018-05-24T09:28:57.847Z,55.47
2018-05-24T09:29:57.906Z,55.67
2018-05-24T09:30:57.771Z,56.35
2018-05-24T09:31:57.867Z,55.70
2018-05-24T09:32:57.738Z,55.41
2018-05-24T09:33:57.792Z,55.79
2018-05-24T09:34:57.691Z,55.09
2018-05-24T09:35:58.730Z,55.16
2018-05-24T09:36:57.648Z,55.74
2018-05-24T09:37:58.727Z,55.16
2018-05-24T09:38:57.597Z,57.09
2018-05-24T09:40:03.244Z,56.35
2018-05-24T09:40:57.567Z,55.83
2018-05-24T09:41:57.620Z,56.13
2018-05-24T09:42:57.542Z,55.16
2018-05-24T09:43:58.567Z,56.80
2018-05-24T09:44:57.487Z,55.26
2018-05-24T09:45:57.463Z,55.45
2018-05-24T09:47:10.286Z,56.03
2018-05-24T09:47:57.402Z,56.05
2018-05-24T09:48:57.512Z,56.35
2018-05-24T09:49:57.355Z,55.77
2018-05-24T09:50:57.365Z,55.60
2018-05-24T09:51:57.330Z,55.31
2018-05-24T09:52:57.388Z,54.85
2018-05-24T09:53:57.288Z,54.66
2018-05-24T09:54:57.252Z,54.57
2018-05-24T09:55:57.240Z,54.37
2018-05-24T09:56:57.327Z,54.27
2018-05-24T09:57:57.210Z,54.21
2018-05-24T09:58:57.221Z,54.69
2018-05-24T09:59:57.159Z,54.30
2018-05-24T10:00:57.488Z,54.30
2018-05-24T10:01:57.098Z,54.79
2018-05-24T10:02:57.144Z,54.62
2018-05-24T10:03:57.055Z,53.94
2018-05-24T10:04:57.053Z,52.68
2018-05-24T10:05:57.076Z,53.33
2018-05-24T10:06:57.013Z,53.33
2018-05-24T10:07:56.976Z,54.21
2018-05-24T10:08:56.971Z,54.47
2018-05-24T10:09:56.949Z,54.57
2018-05-24T10:10:56.978Z,53.04
2018-05-24T10:11:56.902Z,53.50
2018-05-24T10:12:56.896Z,53.59
2018-05-24T10:13:56.846Z,54.08
2018-05-24T10:14:56.898Z,54.37
2018-05-24T10:15:56.800Z,54.95
2018-05-24T10:16:56.835Z,55.02
2018-05-24T10:17:56.748Z,55.70
2018-05-24T10:18:56.842Z,56.21
2018-05-24T10:19:56.723Z,55.24
2018-05-24T10:20:56.770Z,54.17
2018-05-24T10:21:56.672Z,55.15
2018-05-24T10:22:56.756Z,53.91
2018-05-24T10:23:56.643Z,53.50
2018-05-24T10:24:56.661Z,54.73
2018-05-24T10:25:56.613Z,54.75
2018-05-24T10:26:56.577Z,54.63
2018-05-24T10:27:56.593Z,54.63
2018-05-24T10:28:56.517Z,55.02
2018-05-24T10:29:56.605Z,54.35
2018-05-24T10:30:56.487Z,54.53
2018-05-24T10:31:56.522Z,53.86
2018-05-24T10:32:56.457Z,54.75
2018-05-24T10:33:56.549Z,53.89
2018-05-24T10:34:56.397Z,53.69
2018-05-24T10:35:56.364Z,54.17
2018-05-24T10:36:56.658Z,53.50
2018-05-24T10:37:56.445Z,53.41
2018-05-24T10:38:56.436Z,53.21
2018-05-24T10:39:56.361Z,53.31
2018-05-24T10:40:56.455Z,54.57
2018-05-24T10:41:56.306Z,54.63
2018-05-24T10:42:56.268Z,54.15
2018-05-24T10:43:56.208Z,54.25
2018-05-24T10:44:56.193Z,54.15
2018-05-24T10:45:56.144Z,54.03
2018-05-24T10:46:56.212Z,54.99
2018-05-24T10:47:56.111Z,55.38
2018-05-24T10:48:56.132Z,55.38
2018-05-24T10:49:56.070Z,55.87
2018-05-24T10:50:56.244Z,55.41
2018-05-24T10:51:56.046Z,55.89
2018-05-24T10:52:56.038Z,55.43
2018-05-24T10:53:55.992Z,54.75
2018-05-24T10:54:55.985Z,54.57
2018-05-24T10:55:56.039Z,54.17
2018-05-24T10:56:55.932Z,53.99
2018-05-24T10:57:55.986Z,55.46
2018-05-24T10:58:55.898Z,53.94
2018-05-24T10:59:55.885Z,53.75
2018-05-24T11:00:55.827Z,53.39
2018-05-24T11:01:55.899Z,52.44
2018-05-24T11:02:55.875Z,51.11
2018-05-24T11:03:55.811Z,50.94
2018-05-24T11:04:55.750Z,51.04
2018-05-24T11:05:55.815Z,49.71
2018-05-24T11:06:55.709Z,49.61
2018-05-24T11:07:55.730Z,49.68
2018-05-24T11:08:55.666Z,49.66
2018-05-24T11:09:55.751Z,50.21
2018-05-24T11:10:55.633Z,51.74
2018-05-24T11:11:55.673Z,51.84
2018-05-24T11:12:55.580Z,51.93
2018-05-24T11:13:55.700Z,52.20
2018-05-24T11:14:55.560Z,52.39
2018-05-24T11:15:55.592Z,53.45
2018-05-24T11:16:55.504Z,54.13
2018-05-24T11:17:56.538Z,53.85
2018-05-24T11:18:55.466Z,53.97
2018-05-24T11:19:55.523Z,54.55
2018-05-24T11:20:55.414Z,54.52
2018-05-24T11:21:55.532Z,54.23
2018-05-24T11:22:55.373Z,54.62
2018-05-24T11:23:55.443Z,55.94
2018-05-24T11:24:55.328Z,55.56
2018-05-24T11:25:55.375Z,55.46
2018-05-24T11:26:55.280Z,54.98
2018-05-24T11:27:55.371Z,55.53
2018-05-24T11:28:55.244Z,54.95
2018-05-24T11:29:55.209Z,55.82
2018-05-24T11:30:55.273Z,55.63
2018-05-24T11:31:55.188Z,55.51
2018-05-24T11:32:55.227Z,56.28
2018-05-24T11:33:55.124Z,57.63
2018-05-24T11:34:55.152Z,56.95
2018-05-24T11:35:55.089Z,57.63
2018-05-24T11:36:56.240Z,57.92
2018-05-24T11:37:55.058Z,57.44
2018-05-24T11:38:56.129Z,57.51
2018-05-24T11:39:55.087Z,58.12
2018-05-24T11:40:55.013Z,57.34
2018-05-24T11:41:54.974Z,55.51
2018-05-24T11:42:55.026Z,55.82
2018-05-24T11:43:54.963Z,55.24
2018-05-24T11:44:54.952Z,54.95
2018-05-24T11:45:54.885Z,55.34
2018-05-24T11:46:54.946Z,55.76
2018-05-24T11:47:54.860Z,54.69
2018-05-24T11:48:54.820Z,54.23
2018-05-24T11:49:54.806Z,54.62
2018-05-24T11:50:59.786Z,55.46
2018-05-24T11:51:54.833Z,54.49
2018-05-24T11:52:54.778Z,54.98
2018-05-24T11:53:54.705Z,55.34
2018-05-24T11:54:54.794Z,55.70
2018-05-24T11:55:54.700Z,57.34
2018-05-24T11:56:54.709Z,56.93
2018-05-24T11:57:54.631Z,57.41
2018-05-24T11:58:55.647Z,57.96
2018-05-24T11:59:54.613Z,59.38
2018-05-24T12:00:55.647Z,59.67
2018-05-24T12:01:54.564Z,60.25
2018-05-24T12:02:54.638Z,61.31
2018-05-24T12:03:54.504Z,63.15
2018-05-24T12:04:54.559Z,62.57
2018-05-24T12:05:54.474Z,62.57
2018-05-24T12:06:55.484Z,61.96
2018-05-24T12:07:54.415Z,63.70
2018-05-24T12:08:54.472Z,63.02
2018-05-24T12:09:54.495Z,62.54
2018-05-24T12:10:54.407Z,61.77
2018-05-24T12:11:54.347Z,61.67
2018-05-24T12:12:54.408Z,61.86
2018-05-24T12:13:54.304Z,62.02
2018-05-24T12:14:54.319Z,63.09
2018-05-24T12:15:54.256Z,63.47
2018-05-24T12:16:54.331Z,63.57
2018-05-24T12:17:54.223Z,63.57
2018-05-24T12:18:54.242Z,63.47
2018-05-24T12:19:54.164Z,63.47
2018-05-24T12:20:54.265Z,63.57
2018-05-24T12:21:54.134Z,63.47
2018-05-24T12:22:54.110Z,64.24
2018-05-24T12:23:54.100Z,64.24
2018-05-24T12:24:54.181Z,65.11
2018-05-24T12:25:54.053Z,65.30
2018-05-24T12:26:55.105Z,65.50
2018-05-24T12:27:54.016Z,65.59
2018-05-24T12:28:54.116Z,64.92
2018-05-24T12:29:53.955Z,64.72
2018-05-24T12:30:54.020Z,64.15
2018-05-24T12:31:53.931Z,65.01
2018-05-24T12:32:54.020Z,64.92
2018-05-24T12:33:53.897Z,64.72
2018-05-24T12:34:53.920Z,65.20
2018-05-24T12:35:53.856Z,64.92
2018-05-24T12:36:53.826Z,65.27
2018-05-24T12:37:53.785Z,65.50
2018-05-24T12:38:53.873Z,65.50
2018-05-24T12:39:53.744Z,65.40
2018-05-24T12:40:53.865Z,65.50
2018-05-24T12:41:53.705Z,65.50
2018-05-24T12:42:53.781Z,65.14
2018-05-24T12:43:53.692Z,65.01
2018-05-24T12:44:53.697Z,64.95
2018-05-24T12:45:53.645Z,64.92
2018-05-24T12:46:53.692Z,65.11
2018-05-24T12:47:53.596Z,65.69
2018-05-24T12:48:53.664Z,65.95
2018-05-24T12:49:53.539Z,66.14
2018-05-24T12:50:53.645Z,66.46
2018-05-24T12:51:53.669Z,66.36